Time,TemperatureF,DewpointF,PressureIn,WindDirection,WindDirectionDegrees,WindSpeedMPH,WindSpeedGustMPH,Humidity,HourlyPrecipIn,Conditions,Clouds,dailyrainin,SoftwareType,DateUTC
2013-09-01 00:01:00,77.2,70.6,29.81,SSE,158,0.7,2.7,80,0.00,,,0.00,WUHU216HW,2013-09-01 04:01:00,
2013-09-01 00:06:00,77.2,70.6,29.80,SSE,158,2.0,4.7,80,0.00,,,0.00,WUHU216HW,2013-09-01 04:06:00,
2013-09-01 00:11:00,77.2,70.6,29.80,SW,225,0.9,4.7,80,0.00,,,0.00,WUHU216HW,2013-09-01 04:11:00,
2013-09-01 00:16:00,77.2,70.6,29.80,SSE,158,2.0,2.5,80,0.00,,,0.00,WUHU216HW,2013-09-01 04:16:00,
2013-09-01 00:21:00,77.2,70.9,29.80,SE,135,3.4,3.4,81,0.00,,,0.00,WUHU216HW,2013-09-01 04:21:00,
2013-09-01 00:26:00,77.0,70.7,29.80,SSE,158,1.8,3.4,81,0.00,,,0.00,WUHU216HW,2013-09-01 04:26:00,
2013-09-01 00:31:00,77.0,70.7,29.80,SSE,158,2.5,3.4,81,0.00,,,0.00,WUHU216HW,2013-09-01 04:31:00,
2013-09-01 00:36:00,77.0,70.7,29.80,South,180,3.4,4.5,81,0.00,,,0.00,WUHU216HW,2013-09-01 04:36:00,
2013-09-01 00:41:00,77.0,70.7,29.80,SSW,203,1.1,4.7,81,0.00,,,0.00,WUHU216HW,2013-09-01 04:41:00,
2013-09-01 00:46:00,76.9,70.6,29.80,SSE,158,1.1,4.7,81,0.00,,,0.00,WUHU216HW,2013-09-01 04:46:00,
2013-09-01 00:51:00,76.9,70.6,29.80,West,270,1.1,2.9,81,0.00,,,0.00,WUHU216HW,2013-09-01 04:51:00,
2013-09-01 00:56:00,76.9,70.6,29.80,SSE,158,5.1,5.1,81,0.00,,,0.00,WUHU216HW,2013-09-01 04:56:00,
2013-09-01 01:02:00,76.7,70.4,29.80,SE,135,5.1,5.1,81,0.00,,,0.00,WUHU216HW,2013-09-01 05:02:00,
2013-09-01 01:07:00,76.7,70.4,29.80,SSE,158,3.6,5.1,81,0.00,,,0.00,WUHU216HW,2013-09-01 05:07:00,
2013-09-01 01:12:00,76.7,70.4,29.80,SSE,158,4.7,4.7,81,0.00,,,0.00,WUHU216HW,2013-09-01 05:12:00,
2013-09-01 01:17:00,76.7,70.4,29.80,SSE,158,0.7,4.7,81,0.00,,,0.00,WUHU216HW,2013-09-01 05:17:00,
2013-09-01 01:22:00,76.5,70.3,29.80,SSE,158,3.6,4.7,81,0.00,,,0.00,WUHU216HW,2013-09-01 05:22:00,
2013-09-01 01:27:00,76.5,70.3,29.80,SE,135,3.4,4.7,81,0.00,,,0.00,WUHU216HW,2013-09-01 05:27:00,
2013-09-01 01:32:00,76.5,70.3,29.80,SSE,158,1.8,3.4,81,0.00,,,0.00,WUHU216HW,2013-09-01 05:32:00,
2013-09-01 01:37:00,76.3,70.1,29.80,SE,135,1.8,2.9,81,0.00,,,0.00,WUHU216HW,2013-09-01 05:37:00,
2013-09-01 01:42:00,76.3,70.1,29.80,SSE,158,0.4,2.5,81,0.00,,,0.00,WUHU216HW,2013-09-01 05:42:00,
2013-09-01 01:47:00,76.3,70.1,29.80,SSE,158,3.8,4.9,81,0.00,,,0.00,WUHU216HW,2013-09-01 05:47:00,
2013-09-01 01:52:00,76.3,70.1,29.79,SE,135,4.9,4.9,81,0.00,,,0.00,WUHU216HW,2013-09-01 05:52:00,
2013-09-01 01:57:00,76.1,69.9,29.79,SSE,158,3.4,4.9,81,0.00,,,0.00,WUHU216HW,2013-09-01 05:57:00,
2013-09-01 02:02:00,76.1,69.9,29.79,SSW,203,1.1,3.4,81,0.00,,,0.00,WUHU216HW,2013-09-01 06:02:00,
2013-09-01 02:07:00,76.1,69.9,29.79,SSE,158,0.7,1.8,81,0.00,,,0.00,WUHU216HW,2013-09-01 06:07:00,
2013-09-01 02:12:00,76.1,69.9,29.79,SSE,158,2.9,2.9,81,0.00,,,0.00,WUHU216HW,2013-09-01 06:12:00,
2013-09-01 02:17:00,76.0,69.8,29.78,South,180,1.3,3.6,81,0.00,,,0.00,WUHU216HW,2013-09-01 06:17:00,
2013-09-01 02:22:00,76.0,69.8,29.78,SSE,158,1.3,4.7,81,0.00,,,0.00,WUHU216HW,2013-09-01 06:22:00,
2013-09-01 02:27:00,76.0,69.8,29.78,South,180,1.1,4.7,81,0.00,,,0.00,WUHU216HW,2013-09-01 06:27:00,
2013-09-01 02:32:00,76.0,70.1,29.79,SE,135,1.8,1.8,82,0.00,,,0.00,WUHU216HW,2013-09-01 06:32:00,
2013-09-01 02:37:00,76.0,70.1,29.79,SSE,158,1.1,2.5,82,0.00,,,0.00,WUHU216HW,2013-09-01 06:37:00,
2013-09-01 02:42:00,75.8,69.9,29.79,SSE,158,1.6,2.5,82,0.00,,,0.00,WUHU216HW,2013-09-01 06:42:00,
2013-09-01 02:47:00,75.8,69.9,29.79,WSW,248,0.9,1.8,82,0.00,,,0.00,WUHU216HW,2013-09-01 06:47:00,
2013-09-01 02:52:00,75.8,69.9,29.79,SSE,158,1.6,1.8,82,0.00,,,0.00,WUHU216HW,2013-09-01 06:52:00,
2013-09-01 02:57:00,75.8,69.9,29.79,SE,135,2.5,2.5,82,0.00,,,0.00,WUHU216HW,2013-09-01 06:57:00,
2013-09-01 03:02:00,75.6,69.8,29.79,SSE,158,0.4,2.7,82,0.00,,,0.00,WUHU216HW,2013-09-01 07:02:00,
2013-09-01 03:07:00,75.6,69.8,29.79,SSW,203,0.4,2.7,82,0.00,,,0.00,WUHU216HW,2013-09-01 07:07:00,
2013-09-01 03:12:00,75.6,69.8,29.79,SSE,158,2.0,2.0,82,0.00,,,0.00,WUHU216HW,2013-09-01 07:12:00,
2013-09-01 03:17:00,75.6,69.8,29.79,SE,135,1.8,3.1,82,0.00,,,0.00,WUHU216HW,2013-09-01 07:17:00,
2013-09-01 03:22:00,75.6,69.8,29.79,SSE,158,1.8,3.1,82,0.00,,,0.00,WUHU216HW,2013-09-01 07:22:00,
2013-09-01 03:27:00,75.6,69.8,29.79,South,180,1.1,1.8,82,0.00,,,0.00,WUHU216HW,2013-09-01 07:27:00,
2013-09-01 03:32:00,75.4,69.9,29.79,SSE,158,0.9,1.8,83,0.00,,,0.00,WUHU216HW,2013-09-01 07:32:00,
2013-09-01 03:37:00,75.4,69.9,29.79,SSE,158,1.6,1.8,83,0.00,,,0.00,WUHU216HW,2013-09-01 07:37:00,
2013-09-01 03:42:00,75.4,69.9,29.79,SSE,158,0.7,2.5,83,0.00,,,0.00,WUHU216HW,2013-09-01 07:42:00,
2013-09-01 03:47:00,75.4,69.9,29.79,SSE,158,1.6,2.5,83,0.00,,,0.00,WUHU216HW,2013-09-01 07:47:00,
2013-09-01 03:52:00,75.2,69.8,29.78,SSE,158,0.9,2.2,83,0.00,,,0.00,WUHU216HW,2013-09-01 07:52:00,
2013-09-01 03:57:00,75.2,69.8,29.78,SSW,203,0.4,2.5,83,0.00,,,0.00,WUHU216HW,2013-09-01 07:57:00,
2013-09-01 04:02:00,75.2,69.8,29.78,SSE,158,0.7,2.5,83,0.00,,,0.00,WUHU216HW,2013-09-01 08:02:00,
2013-09-01 04:07:00,75.2,69.8,29.78,NW,315,0.4,1.8,83,0.00,,,0.00,WUHU216HW,2013-09-01 08:07:00,
2013-09-01 04:12:00,75.2,69.8,29.78,NW,315,0.0,1.8,83,0.00,,,0.00,WUHU216HW,2013-09-01 08:12:00,
2013-09-01 04:17:00,75.2,69.8,29.78,NW,315,0.0,1.8,83,0.00,,,0.00,WUHU216HW,2013-09-01 08:17:00,
2013-09-01 04:22:00,75.4,69.9,29.78,NW,315,0.4,0.7,83,0.00,,,0.00,WUHU216HW,2013-09-01 08:22:00,
2013-09-01 04:27:00,75.2,69.8,29.78,SSE,158,1.3,1.3,83,0.00,,,0.00,WUHU216HW,2013-09-01 08:27:00,
2013-09-01 04:32:00,75.4,69.9,29.78,SSE,158,1.1,2.0,83,0.00,,,0.00,WUHU216HW,2013-09-01 08:32:00,
2013-09-01 04:37:00,75.2,69.8,29.77,SSE,158,0.4,3.4,83,0.00,,,0.00,WUHU216HW,2013-09-01 08:37:00,
2013-09-01 04:42:00,75.2,69.8,29.77,SSE,158,1.6,3.4,83,0.00,,,0.00,WUHU216HW,2013-09-01 08:42:00,
2013-09-01 04:47:00,75.2,69.8,29.77,SSE,158,2.2,5.6,83,0.00,,,0.00,WUHU216HW,2013-09-01 08:47:00,
2013-09-01 04:52:00,75.2,69.8,29.78,South,180,0.2,5.6,83,0.00,,,0.00,WUHU216HW,2013-09-01 08:52:00,
2013-09-01 04:57:00,75.2,69.8,29.78,SW,225,1.1,1.1,83,0.00,,,0.00,WUHU216HW,2013-09-01 08:57:00,
2013-09-01 05:02:00,75.1,69.6,29.78,South,180,0.2,1.1,83,0.00,,,0.00,WUHU216HW,2013-09-01 09:02:00,
2013-09-01 05:07:00,75.1,69.6,29.78,SW,225,0.0,1.1,83,0.00,,,0.00,WUHU216HW,2013-09-01 09:07:00,
2013-09-01 05:12:00,75.1,69.6,29.78,SE,135,0.0,1.8,83,0.00,,,0.00,WUHU216HW,2013-09-01 09:12:00,
2013-09-01 05:17:00,75.1,69.6,29.78,SE,135,0.4,1.8,83,0.00,,,0.00,WUHU216HW,2013-09-01 09:17:00,
2013-09-01 05:22:00,75.1,69.6,29.78,SE,135,0.0,1.1,83,0.00,,,0.00,WUHU216HW,2013-09-01 09:22:00,
2013-09-01 05:27:00,75.1,69.6,29.79,SSE,158,1.1,1.3,83,0.00,,,0.00,WUHU216HW,2013-09-01 09:27:00,
2013-09-01 05:32:00,74.9,69.4,29.79,SE,135,0.2,1.3,83,0.00,,,0.00,WUHU216HW,2013-09-01 09:32:00,
2013-09-01 05:37:00,74.9,69.4,29.79,SE,135,0.4,1.1,83,0.00,,,0.00,WUHU216HW,2013-09-01 09:37:00,
2013-09-01 05:42:00,74.9,69.4,29.79,SSE,158,1.1,1.1,83,0.00,,,0.00,WUHU216HW,2013-09-01 09:42:00,
2013-09-01 05:47:00,74.7,69.2,29.79,SSE,158,0.0,1.1,83,0.00,,,0.00,WUHU216HW,2013-09-01 09:47:00,
2013-09-01 05:52:00,74.5,69.0,29.79,SSE,158,0.0,0.4,83,0.00,,,0.00,WUHU216HW,2013-09-01 09:52:00,
2013-09-01 05:57:00,74.3,68.9,29.79,SSE,158,0.0,0.0,83,0.00,,,0.00,WUHU216HW,2013-09-01 09:57:00,
2013-09-01 06:02:00,74.3,68.9,29.80,SSE,158,0.0,0.0,83,0.00,,,0.00,WUHU216HW,2013-09-01 10:02:00,
2013-09-01 06:07:00,74.3,68.9,29.80,SSE,158,0.0,0.0,83,0.00,,,0.00,WUHU216HW,2013-09-01 10:07:00,
2013-09-01 06:12:00,74.2,68.7,29.80,SSW,203,0.0,0.4,83,0.00,,,0.00,WUHU216HW,2013-09-01 10:12:00,
2013-09-01 06:17:00,74.2,68.7,29.80,SSW,203,0.0,0.4,83,0.00,,,0.00,WUHU216HW,2013-09-01 10:17:00,
2013-09-01 06:22:00,74.2,68.7,29.80,SSW,203,0.0,0.0,83,0.00,,,0.00,WUHU216HW,2013-09-01 10:22:00,
2013-09-01 06:27:00,74.2,68.7,29.80,SSW,203,0.0,0.0,83,0.00,,,0.00,WUHU216HW,2013-09-01 10:27:00,
2013-09-01 06:32:00,74.2,68.7,29.80,SSW,203,0.0,0.0,83,0.00,,,0.00,WUHU216HW,2013-09-01 10:32:00,
2013-09-01 06:37:00,74.2,68.7,29.80,SSW,203,0.0,0.0,83,0.00,,,0.00,WUHU216HW,2013-09-01 10:37:00,
2013-09-01 06:42:00,74.2,68.7,29.80,SSW,203,0.0,0.0,83,0.00,,,0.00,WUHU216HW,2013-09-01 10:42:00,
2013-09-01 06:47:00,74.2,68.7,29.80,SSW,203,0.0,0.0,83,0.00,,,0.00,WUHU216HW,2013-09-01 10:47:00,
2013-09-01 06:52:00,74.2,68.7,29.80,SSW,203,0.0,0.0,83,0.00,,,0.00,WUHU216HW,2013-09-01 10:52:00,
2013-09-01 06:57:00,74.3,68.9,29.81,SSW,203,0.0,0.7,83,0.00,,,0.00,WUHU216HW,2013-09-01 10:57:00,
2013-09-01 07:02:00,74.5,69.0,29.80,SSW,203,0.0,0.7,83,0.00,,,0.00,WUHU216HW,2013-09-01 11:02:00,
2013-09-01 07:07:00,74.5,69.0,29.80,SSW,203,0.0,0.7,83,0.00,,,0.00,WUHU216HW,2013-09-01 11:07:00,
2013-09-01 07:12:00,74.7,69.2,29.80,SE,135,0.4,2.9,83,0.00,,,0.00,WUHU216HW,2013-09-01 11:12:00,
2013-09-01 07:17:00,74.9,69.4,29.80,South,180,1.6,2.9,83,0.00,,,0.00,WUHU216HW,2013-09-01 11:17:00,
2013-09-01 07:22:00,74.9,69.4,29.80,SSE,158,3.4,3.4,83,0.00,,,0.00,WUHU216HW,2013-09-01 11:22:00,
2013-09-01 07:26:00,75.1,69.6,29.80,SE,135,2.2,3.4,83,0.00,,,0.00,WUHU216HW,2013-09-01 11:26:00,
2013-09-01 07:31:00,75.2,69.8,29.80,WSW,248,2.5,2.5,83,0.00,,,0.00,WUHU216HW,2013-09-01 11:31:00,
2013-09-01 07:37:00,75.2,69.8,29.80,SSE,158,2.5,3.4,83,0.00,,,0.00,WUHU216HW,2013-09-01 11:37:00,
2013-09-01 07:42:00,75.6,70.1,29.80,South,180,1.1,6.3,83,0.00,,,0.00,WUHU216HW,2013-09-01 11:42:00,
2013-09-01 07:47:00,75.8,70.3,29.80,SSE,158,2.5,6.3,83,0.00,,,0.00,WUHU216HW,2013-09-01 11:47:00,
2013-09-01 07:52:00,76.0,70.5,29.80,SSE,158,0.9,5.4,83,0.00,,,0.00,WUHU216HW,2013-09-01 11:52:00,
2013-09-01 07:57:00,76.0,70.5,29.80,SE,135,2.0,6.3,83,0.00,,,0.00,WUHU216HW,2013-09-01 11:57:00,
2013-09-01 08:02:00,76.1,70.7,29.81,WSW,248,2.5,6.3,83,0.00,,,0.00,WUHU216HW,2013-09-01 12:02:00,
2013-09-01 08:07:00,76.3,70.8,29.81,SSE,158,2.5,5.6,83,0.00,,,0.00,WUHU216HW,2013-09-01 12:07:00,
2013-09-01 08:12:00,76.3,70.8,29.81,SSE,158,1.6,2.5,83,0.00,,,0.00,WUHU216HW,2013-09-01 12:12:00,
2013-09-01 08:17:00,76.3,70.8,29.81,SSE,158,0.9,2.5,83,0.00,,,0.00,WUHU216HW,2013-09-01 12:17:00,
2013-09-01 08:22:00,76.3,70.8,29.81,SSE,158,1.6,2.5,83,0.00,,,0.00,WUHU216HW,2013-09-01 12:22:00,
2013-09-01 08:27:00,76.5,70.9,29.82,SE,135,1.8,3.4,83,0.00,,,0.00,WUHU216HW,2013-09-01 12:27:00,
2013-09-01 08:32:00,76.7,71.1,29.82,SE,135,2.2,4.0,83,0.00,,,0.00,WUHU216HW,2013-09-01 12:32:00,
2013-09-01 08:37:00,76.7,71.1,29.82,WSW,248,2.7,4.7,83,0.00,,,0.00,WUHU216HW,2013-09-01 12:37:00,
2013-09-01 08:42:00,76.7,71.1,29.82,SE,135,3.8,4.7,83,0.00,,,0.00,WUHU216HW,2013-09-01 12:42:00,
2013-09-01 08:47:00,76.7,71.1,29.82,SSE,158,2.5,4.7,83,0.00,,,0.00,WUHU216HW,2013-09-01 12:47:00,
2013-09-01 08:52:00,76.9,71.3,29.82,SSE,158,6.7,6.7,83,0.00,,,0.00,WUHU216HW,2013-09-01 12:52:00,
2013-09-01 08:57:00,77.0,71.5,29.82,SSE,158,1.3,6.7,83,0.00,,,0.00,WUHU216HW,2013-09-01 12:57:00,
2013-09-01 09:02:00,77.4,71.8,29.82,SE,135,2.5,6.0,83,0.00,,,0.00,WUHU216HW,2013-09-01 13:02:00,
2013-09-01 09:07:00,77.4,71.8,29.82,SSE,158,6.3,6.3,83,0.00,,,0.00,WUHU216HW,2013-09-01 13:07:00,
2013-09-01 09:12:00,77.6,72.0,29.82,SSE,158,3.8,6.3,83,0.00,,,0.00,WUHU216HW,2013-09-01 13:12:00,
2013-09-01 09:17:00,77.8,72.2,29.82,North,0,3.4,6.3,83,0.00,,,0.00,WUHU216HW,2013-09-01 13:17:00,
2013-09-01 09:22:00,78.1,72.5,29.82,SE,135,2.2,5.6,83,0.00,,,0.00,WUHU216HW,2013-09-01 13:22:00,
2013-09-01 09:27:00,78.7,72.7,29.82,SSE,158,0.9,4.9,82,0.00,,,0.00,WUHU216HW,2013-09-01 13:27:00,
2013-09-01 09:32:00,79.2,73.3,29.82,SSE,158,1.3,4.7,82,0.00,,,0.00,WUHU216HW,2013-09-01 13:32:00,
2013-09-01 09:37:00,79.6,73.6,29.82,SSE,158,2.5,5.4,82,0.00,,,0.00,WUHU216HW,2013-09-01 13:37:00,
2013-09-01 09:42:00,79.7,73.5,29.82,SW,225,1.1,5.4,81,0.00,,,0.00,WUHU216HW,2013-09-01 13:42:00,
2013-09-01 09:47:00,80.1,73.8,29.82,NW,315,0.9,4.5,81,0.00,,,0.00,WUHU216HW,2013-09-01 13:47:00,
2013-09-01 09:52:00,80.1,73.8,29.81,SSW,203,2.9,3.8,81,0.00,,,0.00,WUHU216HW,2013-09-01 13:52:00,
2013-09-01 09:57:00,80.3,74.0,29.81,South,180,2.2,3.8,81,0.00,,,0.00,WUHU216HW,2013-09-01 13:57:00,
2013-09-01 10:02:00,80.3,74.0,29.81,SSE,158,0.2,2.5,81,0.00,,,0.00,WUHU216HW,2013-09-01 14:02:00,
2013-09-01 10:07:00,80.3,73.6,29.82,SSE,158,0.9,3.4,80,0.00,,,0.00,WUHU216HW,2013-09-01 14:07:00,
2013-09-01 10:12:00,80.3,73.6,29.82,South,180,2.5,3.4,80,0.00,,,0.00,WUHU216HW,2013-09-01 14:12:00,
2013-09-01 10:17:00,80.6,74.0,29.82,WSW,248,2.5,2.5,80,0.00,,,0.00,WUHU216HW,2013-09-01 14:17:00,
2013-09-01 10:22:00,81.0,74.0,29.82,SSE,158,1.8,3.8,79,0.00,,,0.00,WUHU216HW,2013-09-01 14:22:00,
2013-09-01 10:27:00,81.5,74.9,29.82,SSE,158,2.2,3.8,80,0.00,,,0.00,WUHU216HW,2013-09-01 14:27:00,
2013-09-01 10:32:00,82.3,75.2,29.82,SE,135,4.3,4.3,79,0.00,,,0.00,WUHU216HW,2013-09-01 14:32:00,
2013-09-01 10:37:00,82.8,75.7,29.82,WSW,248,1.8,4.3,79,0.00,,,0.00,WUHU216HW,2013-09-01 14:37:00,
2013-09-01 10:42:00,83.3,75.8,29.81,WSW,248,1.6,4.9,78,0.00,,,0.00,WUHU216HW,2013-09-01 14:42:00,
2013-09-01 10:47:00,83.9,75.9,29.81,SE,135,1.6,4.9,77,0.00,,,0.00,WUHU216HW,2013-09-01 14:47:00,
2013-09-01 10:52:00,84.2,75.8,29.81,SE,135,2.5,4.0,76,0.00,,,0.00,WUHU216HW,2013-09-01 14:52:00,
2013-09-01 10:57:00,84.6,76.1,29.81,SSE,158,2.0,4.0,76,0.00,,,0.00,WUHU216HW,2013-09-01 14:57:00,
2013-09-01 11:02:00,84.6,75.8,29.82,SSW,203,1.1,4.0,75,0.00,,,0.00,WUHU216HW,2013-09-01 15:02:00,
2013-09-01 11:07:00,84.6,75.8,29.82,South,180,1.8,3.6,75,0.00,,,0.00,WUHU216HW,2013-09-01 15:07:00,
2013-09-01 11:12:00,84.2,75.4,29.82,SSE,158,1.1,4.7,75,0.00,,,0.00,WUHU216HW,2013-09-01 15:12:00,
2013-09-01 11:17:00,83.9,75.1,29.82,SE,135,3.8,4.7,75,0.00,,,0.00,WUHU216HW,2013-09-01 15:17:00,
2013-09-01 11:22:00,83.5,74.7,29.81,SE,135,1.8,5.4,75,0.00,,,0.00,WUHU216HW,2013-09-01 15:22:00,
2013-09-01 11:27:00,83.5,75.2,29.81,SSE,158,2.5,5.4,76,0.00,,,0.00,WUHU216HW,2013-09-01 15:27:00,
2013-09-01 11:32:00,83.3,75.0,29.81,SSE,158,5.1,5.6,76,0.00,,,0.00,WUHU216HW,2013-09-01 15:32:00,
2013-09-01 11:37:00,83.3,75.0,29.81,SSW,203,3.4,5.6,76,0.00,,,0.00,WUHU216HW,2013-09-01 15:37:00,
2013-09-01 11:42:00,83.3,75.0,29.80,South,180,4.9,6.3,76,0.00,,,0.00,WUHU216HW,2013-09-01 15:42:00,
2013-09-01 11:47:00,83.3,75.0,29.81,SE,135,1.8,6.3,76,0.00,,,0.00,WUHU216HW,2013-09-01 15:47:00,
2013-09-01 11:52:00,83.3,75.0,29.81,SE,135,1.1,3.6,76,0.00,,,0.00,WUHU216HW,2013-09-01 15:52:00,
2013-09-01 11:57:00,83.5,75.2,29.81,SSE,158,2.5,3.1,76,0.00,,,0.00,WUHU216HW,2013-09-01 15:57:00,
2013-09-01 12:02:00,83.7,75.3,29.81,SSE,158,1.1,3.4,76,0.00,,,0.00,WUHU216HW,2013-09-01 16:02:00,
2013-09-01 12:07:00,83.9,75.5,29.80,ESE,113,2.0,3.6,76,0.00,,,0.00,WUHU216HW,2013-09-01 16:07:00,
2013-09-01 12:12:00,83.9,75.5,29.80,SSE,158,1.6,4.0,76,0.00,,,0.00,WUHU216HW,2013-09-01 16:12:00,
2013-09-01 12:17:00,84.2,75.4,29.79,SSE,158,3.1,6.3,75,0.00,,,0.00,WUHU216HW,2013-09-01 16:17:00,
2013-09-01 12:22:00,84.2,75.4,29.79,SSE,158,0.7,6.3,75,0.00,,,0.00,WUHU216HW,2013-09-01 16:22:00,
2013-09-01 12:27:00,84.6,75.8,29.79,SSE,158,2.7,3.4,75,0.00,,,0.00,WUHU216HW,2013-09-01 16:27:00,
2013-09-01 12:32:00,84.8,75.6,29.79,SW,225,4.0,6.3,74,0.00,,,0.00,WUHU216HW,2013-09-01 16:32:00,
2013-09-01 12:37:00,84.6,75.0,29.79,SE,135,1.8,6.3,73,0.00,,,0.00,WUHU216HW,2013-09-01 16:37:00,
2013-09-01 12:41:00,84.6,75.0,29.79,SSE,158,3.8,4.7,73,0.00,,,0.00,WUHU216HW,2013-09-01 16:41:00,
2013-09-01 12:46:00,84.4,74.8,29.79,South,180,3.1,4.7,73,0.00,,,0.00,WUHU216HW,2013-09-01 16:46:00,
2013-09-01 12:51:00,84.4,74.8,29.79,SSE,158,5.4,5.4,73,0.00,,,0.00,WUHU216HW,2013-09-01 16:51:00,
2013-09-01 12:56:00,84.4,74.8,29.79,SSE,158,5.4,5.4,73,0.00,,,0.00,WUHU216HW,2013-09-01 16:56:00,
2013-09-01 13:01:00,84.2,74.6,29.79,SE,135,2.9,5.4,73,0.00,,,0.00,WUHU216HW,2013-09-01 17:01:00,
2013-09-01 13:06:00,84.2,74.6,29.79,South,180,4.0,4.0,73,0.00,,,0.00,WUHU216HW,2013-09-01 17:06:00,
2013-09-01 13:11:00,84.2,74.6,29.79,SSE,158,4.7,4.9,73,0.00,,,0.00,WUHU216HW,2013-09-01 17:11:00,
2013-09-01 13:16:00,84.2,74.6,29.79,SSE,158,3.4,5.4,73,0.00,,,0.00,WUHU216HW,2013-09-01 17:16:00,
2013-09-01 13:21:00,84.1,74.4,29.79,SSE,158,4.5,5.4,73,0.00,,,0.00,WUHU216HW,2013-09-01 17:21:00,
2013-09-01 13:26:00,83.9,74.3,29.79,SW,225,4.3,5.1,73,0.00,,,0.00,WUHU216HW,2013-09-01 17:26:00,
2013-09-01 13:31:00,83.7,74.1,29.79,SE,135,4.0,5.1,73,0.00,,,0.00,WUHU216HW,2013-09-01 17:31:00,
2013-09-01 13:36:00,83.7,74.1,29.79,South,180,2.5,4.0,73,0.00,,,0.00,WUHU216HW,2013-09-01 17:36:00,
2013-09-01 13:41:00,83.7,74.1,29.78,SSE,158,1.6,2.9,73,0.00,,,0.00,WUHU216HW,2013-09-01 17:41:00,
2013-09-01 13:46:00,83.7,74.1,29.79,SE,135,5.4,5.4,73,0.00,,,0.00,WUHU216HW,2013-09-01 17:46:00,
2013-09-01 13:51:00,83.7,74.1,29.78,SSE,158,2.5,5.4,73,0.00,,,0.00,WUHU216HW,2013-09-01 17:51:00,
2013-09-01 13:56:00,83.9,74.3,29.78,South,180,3.8,5.4,73,0.00,,,0.00,WUHU216HW,2013-09-01 17:56:00,
2013-09-01 14:01:00,83.7,74.1,29.79,SSW,203,5.4,5.8,73,0.00,,,0.00,WUHU216HW,2013-09-01 18:01:00,
2013-09-01 14:06:00,83.2,73.6,29.79,SSE,158,2.5,6.9,73,0.00,,,0.00,WUHU216HW,2013-09-01 18:06:00,
2013-09-01 14:11:00,83.2,73.6,29.79,ESE,113,3.6,6.9,73,0.00,,,0.00,WUHU216HW,2013-09-01 18:11:00,
2013-09-01 14:16:00,83.2,73.6,29.78,SSE,158,4.7,6.7,73,0.00,,,0.00,WUHU216HW,2013-09-01 18:16:00,
2013-09-01 14:21:00,83.2,74.0,29.78,SSW,203,1.3,6.7,74,0.00,,,0.00,WUHU216HW,2013-09-01 18:21:00,
2013-09-01 14:26:00,83.2,74.0,29.78,SSE,158,4.0,4.7,74,0.00,,,0.00,WUHU216HW,2013-09-01 18:26:00,
2013-09-01 14:31:00,83.2,74.0,29.78,SSE,158,3.4,7.2,74,0.00,,,0.00,WUHU216HW,2013-09-01 18:31:00,
2013-09-01 14:36:00,83.3,73.8,29.78,SSE,158,2.2,7.6,73,0.00,,,0.00,WUHU216HW,2013-09-01 18:36:00,
2013-09-01 14:41:00,83.5,73.9,29.78,South,180,4.0,7.6,73,0.00,,,0.00,WUHU216HW,2013-09-01 18:41:00,
2013-09-01 14:46:00,83.3,73.8,29.78,SSW,203,2.7,5.6,73,0.00,,,0.00,WUHU216HW,2013-09-01 18:46:00,
2013-09-01 14:51:00,83.2,73.6,29.78,SSE,158,2.9,5.6,73,0.00,,,0.00,WUHU216HW,2013-09-01 18:51:00,
2013-09-01 14:56:00,83.0,73.8,29.78,SE,135,3.6,4.7,74,0.00,,,0.00,WUHU216HW,2013-09-01 18:56:00,
2013-09-01 15:01:00,82.4,73.3,29.78,SSE,158,3.8,6.9,74,0.00,,,0.00,WUHU216HW,2013-09-01 19:01:00,
2013-09-01 15:06:00,82.1,73.4,29.78,South,180,1.3,6.9,75,0.00,,,0.00,WUHU216HW,2013-09-01 19:06:00,
2013-09-01 15:11:00,81.9,73.2,29.78,SE,135,5.6,5.6,75,0.00,,,0.00,WUHU216HW,2013-09-01 19:11:00,
2013-09-01 15:16:00,81.5,72.8,29.78,SW,225,4.7,8.1,75,0.00,,,0.00,WUHU216HW,2013-09-01 19:16:00,
2013-09-01 15:21:00,81.2,72.6,29.78,SSW,203,2.5,8.1,75,0.00,,,0.00,WUHU216HW,2013-09-01 19:21:00,
2013-09-01 15:26:00,81.0,72.4,29.78,SSE,158,6.9,6.9,75,0.00,,,0.00,WUHU216HW,2013-09-01 19:26:00,
2013-09-01 15:31:00,80.6,72.0,29.77,SSE,158,6.3,6.9,75,0.00,,,0.00,WUHU216HW,2013-09-01 19:31:00,
2013-09-01 15:36:00,80.5,72.2,29.77,SSE,158,1.8,6.3,76,0.00,,,0.00,WUHU216HW,2013-09-01 19:36:00,
2013-09-01 15:41:00,80.1,71.8,29.77,South,180,3.4,6.3,76,0.00,,,0.00,WUHU216HW,2013-09-01 19:41:00,
2013-09-01 15:46:00,79.9,72.1,29.77,SSE,158,2.0,6.3,77,0.00,,,0.00,WUHU216HW,2013-09-01 19:46:00,
2013-09-01 15:51:00,79.6,72.1,29.77,South,180,2.2,6.3,78,0.00,,,0.00,WUHU216HW,2013-09-01 19:51:00,
2013-09-01 15:57:00,79.6,72.1,29.77,SSE,158,1.1,4.7,78,0.00,,,0.00,WUHU216HW,2013-09-01 19:57:00,
2013-09-01 16:02:00,79.4,71.9,29.77,SSE,158,3.6,4.7,78,0.00,,,0.00,WUHU216HW,2013-09-01 20:02:00,
2013-09-01 16:07:00,79.0,71.6,29.77,SE,135,4.3,6.0,78,0.00,,,0.00,WUHU216HW,2013-09-01 20:07:00,
2013-09-01 16:12:00,79.0,71.6,29.77,SE,135,3.4,6.0,78,0.00,,,0.00,WUHU216HW,2013-09-01 20:12:00,
2013-09-01 16:17:00,78.8,71.8,29.77,SSE,158,4.9,5.1,79,0.00,,,0.00,WUHU216HW,2013-09-01 20:17:00,
2013-09-01 16:22:00,78.5,71.5,29.77,SE,135,3.6,4.9,79,0.00,,,0.00,WUHU216HW,2013-09-01 20:22:00,
2013-09-01 16:27:00,78.1,71.5,29.77,East,90,2.5,5.8,80,0.00,,,0.00,WUHU216HW,2013-09-01 20:27:00,
2013-09-01 16:32:00,77.8,71.1,29.77,SSE,158,3.4,5.8,80,0.00,,,0.00,WUHU216HW,2013-09-01 20:32:00,
2013-09-01 16:37:00,77.6,70.9,29.77,SSE,158,1.1,4.9,80,0.00,,,0.00,WUHU216HW,2013-09-01 20:37:00,
2013-09-01 16:42:00,77.4,71.1,29.76,SE,135,2.2,8.9,81,0.00,,,0.00,WUHU216HW,2013-09-01 20:42:00,
2013-09-01 16:47:00,77.4,71.1,29.76,SSE,158,9.4,9.4,81,0.00,,,0.00,WUHU216HW,2013-09-01 20:47:00,
2013-09-01 16:52:00,77.2,70.9,29.77,SSE,158,2.9,9.4,81,0.00,,,0.00,WUHU216HW,2013-09-01 20:52:00,
2013-09-01 16:57:00,77.0,70.7,29.77,ESE,113,1.1,4.9,81,0.00,,,0.00,WUHU216HW,2013-09-01 20:57:00,
2013-09-01 17:02:00,77.0,70.7,29.76,SSE,158,1.6,5.4,81,0.00,,,0.00,WUHU216HW,2013-09-01 21:02:00,
2013-09-01 17:07:00,76.9,70.6,29.77,SE,135,2.7,5.4,81,0.00,,,0.00,WUHU216HW,2013-09-01 21:07:00,
2013-09-01 17:12:00,76.9,70.6,29.77,SSE,158,1.3,2.9,81,0.00,,,0.00,WUHU216HW,2013-09-01 21:12:00,
2013-09-01 17:17:00,76.9,70.9,29.77,South,180,2.5,4.7,82,0.00,,,0.00,WUHU216HW,2013-09-01 21:17:00,
2013-09-01 17:22:00,76.9,70.9,29.77,South,180,2.9,4.7,82,0.00,,,0.00,WUHU216HW,2013-09-01 21:22:00,
2013-09-01 17:27:00,76.7,70.7,29.77,SE,135,2.0,2.9,82,0.01,,,0.01,WUHU216HW,2013-09-01 21:27:00,
2013-09-01 17:32:00,76.7,70.7,29.76,SSE,158,0.9,2.7,82,0.01,,,0.01,WUHU216HW,2013-09-01 21:32:00,
2013-09-01 17:37:00,76.9,70.9,29.76,SSW,203,4.5,4.5,82,0.01,,,0.01,WUHU216HW,2013-09-01 21:37:00,
2013-09-01 17:42:00,76.9,70.9,29.76,SSE,158,1.8,4.5,82,0.01,,,0.01,WUHU216HW,2013-09-01 21:42:00,
2013-09-01 17:47:00,76.9,70.9,29.76,SSE,158,0.2,1.8,82,0.01,,,0.01,WUHU216HW,2013-09-01 21:47:00,
2013-09-01 17:52:00,76.9,70.9,29.77,South,180,0.4,5.1,82,0.01,,,0.01,WUHU216HW,2013-09-01 21:52:00,
2013-09-01 17:57:00,76.9,70.9,29.77,SSE,158,0.0,5.1,82,0.01,,,0.01,WUHU216HW,2013-09-01 21:57:00,
2013-09-01 18:02:00,76.9,71.3,29.77,SSE,158,0.2,0.4,83,0.01,,,0.01,WUHU216HW,2013-09-01 22:02:00,
2013-09-01 18:07:00,76.9,70.9,29.77,South,180,0.0,0.4,82,0.01,,,0.01,WUHU216HW,2013-09-01 22:07:00,
2013-09-01 18:12:00,76.9,71.3,29.77,SSW,203,0.0,1.1,83,0.01,,,0.01,WUHU216HW,2013-09-01 22:12:00,
2013-09-01 18:17:00,76.9,71.3,29.77,South,180,0.7,1.1,83,0.01,,,0.01,WUHU216HW,2013-09-01 22:17:00,
2013-09-01 18:21:00,76.9,71.3,29.77,SSE,158,1.8,1.8,83,0.01,,,0.02,WUHU216HW,2013-09-01 22:21:00,
2013-09-01 18:26:00,76.7,70.7,29.77,SSE,158,0.7,1.8,82,0.01,,,0.02,WUHU216HW,2013-09-01 22:26:00,
2013-09-01 18:31:00,76.7,70.7,29.77,SSE,158,0.4,1.6,82,0.01,,,0.02,WUHU216HW,2013-09-01 22:31:00,
2013-09-01 18:36:00,76.5,70.6,29.76,SSE,158,0.7,1.3,82,0.01,,,0.02,WUHU216HW,2013-09-01 22:36:00,
2013-09-01 18:42:00,76.5,70.6,29.76,East,90,0.2,1.3,82,0.01,,,0.02,WUHU216HW,2013-09-01 22:42:00,
2013-09-01 18:47:00,76.3,70.5,29.76,SE,135,0.9,1.8,82,0.01,,,0.02,WUHU216HW,2013-09-01 22:47:00,
2013-09-01 18:52:00,76.3,70.8,29.76,SSE,158,1.6,1.8,83,0.01,,,0.02,WUHU216HW,2013-09-01 22:52:00,
2013-09-01 18:56:00,76.1,70.7,29.76,SSE,158,3.6,3.6,83,0.01,,,0.02,WUHU216HW,2013-09-01 22:56:00,
2013-09-01 19:01:00,76.1,70.7,29.77,SSE,158,2.2,3.6,83,0.01,,,0.02,WUHU216HW,2013-09-01 23:01:00,
2013-09-01 19:07:00,76.0,70.5,29.77,SE,135,0.9,3.6,83,0.01,,,0.02,WUHU216HW,2013-09-01 23:07:00,
2013-09-01 19:12:00,76.0,70.5,29.76,South,180,2.7,3.6,83,0.01,,,0.02,WUHU216HW,2013-09-01 23:12:00,
2013-09-01 19:17:00,75.8,70.3,29.76,SSE,158,3.4,3.4,83,0.00,,,0.02,WUHU216HW,2013-09-01 23:17:00,
2013-09-01 19:22:00,75.6,70.1,29.76,SE,135,1.3,3.4,83,0.00,,,0.02,WUHU216HW,2013-09-01 23:22:00,
2013-09-01 19:27:00,75.6,70.1,29.77,SE,135,2.5,3.1,83,0.00,,,0.02,WUHU216HW,2013-09-01 23:27:00,
2013-09-01 19:32:00,75.6,70.1,29.77,SSE,158,2.5,4.0,83,0.00,,,0.02,WUHU216HW,2013-09-01 23:32:00,
2013-09-01 19:37:00,75.4,69.9,29.76,SSW,203,2.0,4.0,83,0.00,,,0.02,WUHU216HW,2013-09-01 23:37:00,
2013-09-01 19:41:00,75.2,69.8,29.77,South,180,4.7,4.7,83,0.00,,,0.02,WUHU216HW,2013-09-01 23:41:00,
2013-09-01 19:46:00,75.1,69.6,29.77,SSE,158,2.2,6.5,83,0.00,,,0.02,WUHU216HW,2013-09-01 23:46:00,
2013-09-01 19:51:00,74.9,69.4,29.77,SSE,158,1.8,6.5,83,0.00,,,0.02,WUHU216HW,2013-09-01 23:51:00,
2013-09-01 19:56:00,74.5,69.0,29.76,SSE,158,2.0,4.0,83,0.00,,,0.02,WUHU216HW,2013-09-01 23:56:00,
2013-09-01 20:01:00,74.5,69.0,29.77,SSE,158,2.5,3.8,83,0.00,,,0.02,WUHU216HW,2013-09-02 00:01:00,
2013-09-01 20:06:00,74.5,69.0,29.77,SSE,158,1.8,4.5,83,0.00,,,0.02,WUHU216HW,2013-09-02 00:06:00,
2013-09-01 20:12:00,74.7,69.2,29.77,SSE,158,3.8,4.5,83,0.00,,,0.02,WUHU216HW,2013-09-02 00:12:00,
2013-09-01 20:17:00,74.7,69.2,29.77,SSE,158,2.5,3.8,83,0.00,,,0.02,WUHU216HW,2013-09-02 00:17:00,
2013-09-01 20:22:00,74.9,69.4,29.77,South,180,2.2,3.8,83,0.00,,,0.02,WUHU216HW,2013-09-02 00:22:00,
2013-09-01 20:27:00,74.9,69.4,29.77,SSE,158,1.6,2.5,83,0.00,,,0.02,WUHU216HW,2013-09-02 00:27:00,
2013-09-01 20:32:00,74.9,69.4,29.78,SSE,158,7.2,7.2,83,0.00,,,0.02,WUHU216HW,2013-09-02 00:32:00,
2013-09-01 20:37:00,74.9,69.4,29.78,South,180,0.9,7.2,83,0.00,,,0.02,WUHU216HW,2013-09-02 00:37:00,
2013-09-01 20:42:00,75.1,69.6,29.78,SE,135,0.2,4.3,83,0.00,,,0.02,WUHU216HW,2013-09-02 00:42:00,
2013-09-01 20:47:00,75.1,69.6,29.78,SSE,158,3.4,3.4,83,0.00,,,0.02,WUHU216HW,2013-09-02 00:47:00,
2013-09-01 20:52:00,75.1,69.6,29.78,South,180,3.4,4.0,83,0.00,,,0.02,WUHU216HW,2013-09-02 00:52:00,
2013-09-01 20:57:00,75.2,69.8,29.78,South,180,4.0,4.0,83,0.00,,,0.02,WUHU216HW,2013-09-02 00:57:00,
2013-09-01 20:58:00,75.2,69.8,29.78,SSE,158,0.4,4.0,83,0.00,,,0.02,WUHU216HW,2013-09-02 00:58:00,
2013-09-01 20:59:00,75.2,69.8,29.78,SSW,203,1.6,4.0,83,0.00,,,0.02,WUHU216HW,2013-09-02 00:59:00,
2013-09-01 21:02:00,75.2,69.8,29.78,ENE,68,3.1,4.0,83,0.00,,,0.02,WUHU216HW,2013-09-02 01:02:00,
2013-09-01 21:03:00,75.2,69.8,29.78,SSE,158,2.0,4.0,83,0.00,,,0.02,WUHU216HW,2013-09-02 01:03:00,
2013-09-01 21:05:00,75.2,69.8,29.78,SSE,158,0.4,4.0,83,0.00,,,0.02,WUHU216HW,2013-09-02 01:05:00,
2013-09-01 21:06:00,75.2,69.8,29.78,SSE,158,4.7,4.7,83,0.00,,,0.02,WUHU216HW,2013-09-02 01:06:00,
2013-09-01 21:08:00,75.2,69.8,29.78,SSE,158,3.6,4.7,83,0.00,,,0.02,WUHU216HW,2013-09-02 01:08:00,
2013-09-01 21:09:00,75.2,69.8,29.78,SSE,158,1.6,4.7,83,0.00,,,0.02,WUHU216HW,2013-09-02 01:09:00,
2013-09-01 21:10:00,75.2,69.8,29.78,SSE,158,1.8,4.7,83,0.00,,,0.02,WUHU216HW,2013-09-02 01:10:00,
2013-09-01 21:12:00,75.2,69.8,29.78,SSE,158,1.8,4.7,83,0.00,,,0.02,WUHU216HW,2013-09-02 01:12:00,
2013-09-01 21:13:00,75.2,69.8,29.78,SSE,158,2.9,4.7,83,0.00,,,0.02,WUHU216HW,2013-09-02 01:13:00,
2013-09-01 21:15:00,75.2,69.8,29.78,South,180,2.5,4.7,83,0.00,,,0.02,WUHU216HW,2013-09-02 01:15:00,
2013-09-01 21:16:00,75.2,69.8,29.78,South,180,2.7,3.6,83,0.00,,,0.02,WUHU216HW,2013-09-02 01:16:00,
2013-09-01 21:18:00,75.2,69.8,29.78,SSW,203,1.8,2.9,83,0.00,,,0.02,WUHU216HW,2013-09-02 01:18:00,
2013-09-01 21:19:00,75.2,69.8,29.78,SSW,203,1.8,2.9,83,0.00,,,0.02,WUHU216HW,2013-09-02 01:19:00,
2013-09-01 21:21:00,75.2,69.8,29.78,SSW,203,1.6,4.0,83,0.00,,,0.02,WUHU216HW,2013-09-02 01:21:00,
2013-09-01 21:22:00,75.2,69.8,29.78,SSE,158,2.2,4.0,83,0.00,,,0.02,WUHU216HW,2013-09-02 01:22:00,
2013-09-01 21:24:00,75.1,69.6,29.78,SSW,203,2.0,4.0,83,0.00,,,0.02,WUHU216HW,2013-09-02 01:24:00,
2013-09-01 21:25:00,75.2,69.8,29.78,SSE,158,2.9,4.0,83,0.00,,,0.02,WUHU216HW,2013-09-02 01:25:00,
2013-09-01 21:27:00,75.1,69.6,29.78,South,180,1.1,4.0,83,0.00,,,0.02,WUHU216HW,2013-09-02 01:27:00,
2013-09-01 21:28:00,75.2,69.8,29.78,SSE,158,4.7,4.7,83,0.00,,,0.02,WUHU216HW,2013-09-02 01:28:00,
2013-09-01 21:30:00,75.2,69.8,29.78,SE,135,2.0,4.7,83,0.00,,,0.02,WUHU216HW,2013-09-02 01:30:00,
2013-09-01 21:31:00,75.2,69.8,29.79,SSE,158,1.3,4.7,83,0.00,,,0.02,WUHU216HW,2013-09-02 01:31:00,
2013-09-01 21:33:00,75.1,69.6,29.79,SSW,203,1.6,4.7,83,0.00,,,0.02,WUHU216HW,2013-09-02 01:33:00,
2013-09-01 21:34:00,75.2,69.8,29.79,SSE,158,1.1,4.7,83,0.00,,,0.02,WUHU216HW,2013-09-02 01:34:00,
2013-09-01 21:36:00,75.2,69.8,29.79,SE,135,1.1,4.7,83,0.00,,,0.02,WUHU216HW,2013-09-02 01:36:00,
2013-09-01 21:37:00,75.2,69.8,29.79,SSE,158,2.0,4.7,83,0.00,,,0.02,WUHU216HW,2013-09-02 01:37:00,
2013-09-01 21:39:00,75.2,69.8,29.79,SSE,158,4.5,4.5,83,0.00,,,0.02,WUHU216HW,2013-09-02 01:39:00,
2013-09-01 21:40:00,75.2,69.8,29.79,South,180,1.8,4.5,83,0.00,,,0.02,WUHU216HW,2013-09-02 01:40:00,
2013-09-01 21:42:00,75.2,69.8,29.79,SSE,158,2.2,4.5,83,0.00,,,0.02,WUHU216HW,2013-09-02 01:42:00,
2013-09-01 21:43:00,75.2,69.8,29.79,SSE,158,1.6,4.5,83,0.00,,,0.02,WUHU216HW,2013-09-02 01:43:00,
2013-09-01 21:45:00,75.2,69.8,29.79,SE,135,3.8,4.5,83,0.00,,,0.02,WUHU216HW,2013-09-02 01:45:00,
2013-09-01 21:46:00,75.2,69.8,29.79,SE,135,3.6,4.5,83,0.00,,,0.02,WUHU216HW,2013-09-02 01:46:00,
2013-09-01 21:48:00,75.2,69.8,29.79,SSE,158,1.3,4.5,83,0.00,,,0.02,WUHU216HW,2013-09-02 01:48:00,
2013-09-01 21:49:00,75.2,69.8,29.79,SSE,158,1.8,3.8,83,0.00,,,0.02,WUHU216HW,2013-09-02 01:49:00,
2013-09-01 21:51:00,75.2,69.8,29.79,SSE,158,6.0,6.0,83,0.00,,,0.02,WUHU216HW,2013-09-02 01:51:00,
2013-09-01 21:52:00,75.2,69.8,29.79,SSE,158,1.3,6.0,83,0.00,,,0.02,WUHU216HW,2013-09-02 01:52:00,
2013-09-01 21:54:00,75.2,69.8,29.79,SSE,158,4.0,6.0,83,0.00,,,0.02,WUHU216HW,2013-09-02 01:54:00,
2013-09-01 21:55:00,75.2,69.8,29.79,SSE,158,1.3,6.0,83,0.00,,,0.02,WUHU216HW,2013-09-02 01:55:00,
2013-09-01 21:57:00,75.2,69.8,29.79,SSE,158,1.3,6.0,83,0.00,,,0.02,WUHU216HW,2013-09-02 01:57:00,
2013-09-01 21:58:00,75.4,69.9,29.79,SSE,158,2.2,6.0,83,0.00,,,0.02,WUHU216HW,2013-09-02 01:58:00,
2013-09-01 21:59:00,75.2,69.8,29.79,SSE,158,4.5,6.0,83,0.00,,,0.02,WUHU216HW,2013-09-02 01:59:00,
2013-09-01 22:00:00,75.4,69.9,29.79,SSE,158,4.5,4.5,83,0.00,,,0.02,WUHU216HW,2013-09-02 02:00:00,
2013-09-01 22:02:00,75.2,69.8,29.79,SE,135,3.8,4.5,83,0.00,,,0.02,WUHU216HW,2013-09-02 02:02:00,
2013-09-01 22:03:00,75.2,69.8,29.79,SE,135,3.8,4.5,83,0.00,,,0.02,WUHU216HW,2013-09-02 02:03:00,
2013-09-01 22:05:00,75.2,69.8,29.79,SSE,158,0.9,4.5,83,0.00,,,0.02,WUHU216HW,2013-09-02 02:05:00,
2013-09-01 22:06:00,75.2,69.8,29.79,SSE,158,0.9,4.5,83,0.00,,,0.02,WUHU216HW,2013-09-02 02:06:00,
2013-09-01 22:08:00,75.2,69.8,29.79,SSE,158,1.8,4.5,83,0.00,,,0.02,WUHU216HW,2013-09-02 02:08:00,
2013-09-01 22:10:00,75.2,69.8,29.79,SSE,158,1.1,4.5,83,0.00,,,0.02,WUHU216HW,2013-09-02 02:10:00,
2013-09-01 22:12:00,75.2,69.8,29.79,SSE,158,2.2,3.8,83,0.00,,,0.02,WUHU216HW,2013-09-02 02:12:00,
2013-09-01 22:13:00,75.2,69.8,29.79,SSE,158,1.8,3.8,83,0.00,,,0.02,WUHU216HW,2013-09-02 02:13:00,
2013-09-01 22:15:00,75.2,69.8,29.79,SSE,158,0.7,2.5,83,0.00,,,0.02,WUHU216HW,2013-09-02 02:15:00,
2013-09-01 22:16:00,75.2,69.8,29.79,SSE,158,1.1,2.5,83,0.00,,,0.02,WUHU216HW,2013-09-02 02:16:00,
2013-09-01 22:18:00,75.1,69.6,29.79,SSE,158,1.1,2.2,83,0.00,,,0.02,WUHU216HW,2013-09-02 02:18:00,
2013-09-01 22:19:00,75.1,69.6,29.79,SSE,158,1.6,2.2,83,0.00,,,0.02,WUHU216HW,2013-09-02 02:19:00,
2013-09-01 22:21:00,74.9,69.4,29.79,SE,135,1.1,2.2,83,0.00,,,0.02,WUHU216HW,2013-09-02 02:21:00,
2013-09-01 22:22:00,74.9,69.4,29.79,SSE,158,2.0,2.0,83,0.00,,,0.02,WUHU216HW,2013-09-02 02:22:00,
2013-09-01 22:24:00,74.9,69.4,29.79,South,180,1.1,2.0,83,0.00,,,0.02,WUHU216HW,2013-09-02 02:24:00,
2013-09-01 22:25:00,74.9,69.4,29.79,South,180,1.8,2.0,83,0.00,,,0.02,WUHU216HW,2013-09-02 02:25:00,
2013-09-01 22:27:00,74.9,69.4,29.78,SSE,158,0.4,2.0,83,0.00,,,0.02,WUHU216HW,2013-09-02 02:27:00,
2013-09-01 22:28:00,74.7,69.2,29.79,SSE,158,1.3,2.0,83,0.00,,,0.02,WUHU216HW,2013-09-02 02:28:00,
2013-09-01 22:30:00,74.7,69.2,29.79,SSE,158,1.3,2.0,83,0.00,,,0.02,WUHU216HW,2013-09-02 02:30:00,
2013-09-01 22:31:00,74.7,69.2,29.78,SSE,158,1.6,2.0,83,0.00,,,0.02,WUHU216HW,2013-09-02 02:31:00,
2013-09-01 22:33:00,74.5,69.0,29.78,SSE,158,1.8,1.8,83,0.00,,,0.02,WUHU216HW,2013-09-02 02:33:00,
2013-09-01 22:34:00,74.5,69.0,29.78,SSE,158,1.3,1.8,83,0.00,,,0.02,WUHU216HW,2013-09-02 02:34:00,
2013-09-01 22:36:00,74.5,69.0,29.78,SSE,158,1.3,1.8,83,0.00,,,0.02,WUHU216HW,2013-09-02 02:36:00,
2013-09-01 22:37:00,74.5,69.0,29.78,SSE,158,1.8,1.8,83,0.00,,,0.02,WUHU216HW,2013-09-02 02:37:00,
2013-09-01 22:39:00,74.5,69.0,29.78,SE,135,0.4,1.8,83,0.00,,,0.02,WUHU216HW,2013-09-02 02:39:00,
2013-09-01 22:40:00,74.5,69.0,29.78,SE,135,1.8,1.8,83,0.00,,,0.02,WUHU216HW,2013-09-02 02:40:00,
2013-09-01 22:42:00,74.5,69.0,29.79,SSE,158,1.3,1.8,83,0.00,,,0.02,WUHU216HW,2013-09-02 02:42:00,
2013-09-01 22:43:00,74.5,69.0,29.79,SSE,158,1.1,1.8,83,0.00,,,0.02,WUHU216HW,2013-09-02 02:43:00,
2013-09-01 22:45:00,74.3,68.9,29.78,SSE,158,1.6,1.8,83,0.00,,,0.02,WUHU216HW,2013-09-02 02:45:00,
2013-09-01 22:46:00,74.3,68.9,29.79,SSE,158,2.2,2.2,83,0.00,,,0.02,WUHU216HW,2013-09-02 02:46:00,
2013-09-01 22:48:00,74.3,68.9,29.79,SSE,158,1.8,2.5,83,0.00,,,0.02,WUHU216HW,2013-09-02 02:48:00,
2013-09-01 22:49:00,74.3,68.9,29.78,SSE,158,1.1,2.5,83,0.00,,,0.02,WUHU216HW,2013-09-02 02:49:00,
2013-09-01 22:51:00,74.2,68.7,29.78,SSE,158,2.9,2.9,83,0.00,,,0.02,WUHU216HW,2013-09-02 02:51:00,
2013-09-01 22:52:00,74.2,68.7,29.78,SSE,158,1.6,2.9,83,0.00,,,0.02,WUHU216HW,2013-09-02 02:52:00,
2013-09-01 22:54:00,74.2,68.7,29.78,SSE,158,1.1,3.1,83,0.00,,,0.02,WUHU216HW,2013-09-02 02:54:00,
2013-09-01 22:55:00,74.2,68.7,29.78,SE,135,1.8,3.1,83,0.00,,,0.02,WUHU216HW,2013-09-02 02:55:00,
2013-09-01 22:57:00,74.2,68.7,29.78,SE,135,1.8,3.1,83,0.00,,,0.02,WUHU216HW,2013-09-02 02:57:00,
2013-09-01 22:58:00,74.2,68.7,29.78,SSE,158,2.0,3.1,83,0.00,,,0.02,WUHU216HW,2013-09-02 02:58:00,
2013-09-01 22:59:00,74.2,68.7,29.78,SSE,158,0.9,3.1,83,0.00,,,0.02,WUHU216HW,2013-09-02 02:59:00,
2013-09-01 23:00:00,74.2,68.7,29.78,SSE,158,1.8,3.1,83,0.00,,,0.02,WUHU216HW,2013-09-02 03:00:00,
2013-09-01 23:02:00,74.0,68.5,29.78,SSE,158,2.2,2.2,83,0.00,,,0.02,WUHU216HW,2013-09-02 03:02:00,
2013-09-01 23:04:00,74.0,68.5,29.78,SE,135,1.3,2.2,83,0.00,,,0.02,WUHU216HW,2013-09-02 03:04:00,
2013-09-01 23:06:00,74.0,68.5,29.78,SSE,158,2.0,2.2,83,0.00,,,0.02,WUHU216HW,2013-09-02 03:06:00,
2013-09-01 23:07:00,74.0,68.5,29.78,SSE,158,2.5,2.5,83,0.00,,,0.02,WUHU216HW,2013-09-02 03:07:00,
2013-09-01 23:09:00,74.0,68.5,29.78,SSE,158,1.1,2.5,83,0.00,,,0.02,WUHU216HW,2013-09-02 03:09:00,
2013-09-01 23:10:00,74.0,68.5,29.77,SSE,158,2.2,2.5,83,0.00,,,0.02,WUHU216HW,2013-09-02 03:10:00,
2013-09-01 23:12:00,74.0,68.5,29.77,SSE,158,0.4,2.5,83,0.00,,,0.02,WUHU216HW,2013-09-02 03:12:00,
2013-09-01 23:13:00,74.0,68.5,29.77,SSE,158,1.6,2.5,83,0.00,,,0.02,WUHU216HW,2013-09-02 03:13:00,
2013-09-01 23:15:00,74.0,68.5,29.77,SSE,158,1.1,2.5,83,0.00,,,0.02,WUHU216HW,2013-09-02 03:15:00,
2013-09-01 23:16:00,74.2,68.7,29.77,SSE,158,0.7,2.5,83,0.00,,,0.02,WUHU216HW,2013-09-02 03:16:00,
2013-09-01 23:18:00,74.2,68.7,29.77,SSE,158,1.6,2.5,83,0.00,,,0.02,WUHU216HW,2013-09-02 03:18:00,
2013-09-01 23:19:00,74.2,68.7,29.77,SSE,158,0.4,2.5,83,0.00,,,0.02,WUHU216HW,2013-09-02 03:19:00,
2013-09-01 23:21:00,74.2,68.7,29.77,SSE,158,0.9,2.5,83,0.00,,,0.02,WUHU216HW,2013-09-02 03:21:00,
2013-09-01 23:22:00,74.2,68.7,29.77,SSE,158,1.8,2.5,83,0.00,,,0.02,WUHU216HW,2013-09-02 03:22:00,
2013-09-01 23:24:00,74.2,68.7,29.77,SSE,158,1.1,2.5,83,0.00,,,0.02,WUHU216HW,2013-09-02 03:24:00,
2013-09-01 23:25:00,74.2,68.7,29.77,SE,135,1.1,2.5,83,0.00,,,0.02,WUHU216HW,2013-09-02 03:25:00,
2013-09-01 23:26:00,74.2,68.7,29.77,SE,135,1.3,2.5,83,0.00,,,0.02,WUHU216HW,2013-09-02 03:26:00,
2013-09-01 23:28:00,74.2,68.7,29.77,SE,135,0.0,2.2,83,0.00,,,0.02,WUHU216HW,2013-09-02 03:28:00,
2013-09-01 23:29:00,74.2,68.7,29.77,SE,135,0.0,2.2,83,0.00,,,0.02,WUHU216HW,2013-09-02 03:29:00,
2013-09-01 23:31:00,74.2,68.7,29.77,SE,135,1.1,1.8,83,0.00,,,0.02,WUHU216HW,2013-09-02 03:31:00,
2013-09-01 23:32:00,74.2,68.7,29.77,SE,135,0.4,1.3,83,0.00,,,0.02,WUHU216HW,2013-09-02 03:32:00,
2013-09-01 23:34:00,74.3,68.9,29.77,SE,135,1.1,1.3,83,0.00,,,0.02,WUHU216HW,2013-09-02 03:34:00,
2013-09-01 23:35:00,74.2,68.7,29.77,SE,135,0.4,1.3,83,0.00,,,0.02,WUHU216HW,2013-09-02 03:35:00,
2013-09-01 23:37:00,74.2,68.7,29.77,SE,135,0.0,1.1,83,0.00,,,0.02,WUHU216HW,2013-09-02 03:37:00,
2013-09-01 23:38:00,74.2,68.7,29.77,ESE,113,1.1,1.1,83,0.00,,,0.02,WUHU216HW,2013-09-02 03:38:00,
2013-09-01 23:40:00,74.3,68.9,29.77,SE,135,0.0,1.1,83,0.00,,,0.02,WUHU216HW,2013-09-02 03:40:00,
2013-09-01 23:41:00,74.3,68.9,29.77,ESE,113,0.0,1.1,83,0.00,,,0.02,WUHU216HW,2013-09-02 03:41:00,
2013-09-01 23:43:00,74.3,68.9,29.77,SE,135,0.7,1.1,83,0.00,,,0.02,WUHU216HW,2013-09-02 03:43:00,
2013-09-01 23:44:00,74.3,68.9,29.76,SE,135,0.7,1.1,83,0.00,,,0.02,WUHU216HW,2013-09-02 03:44:00,
2013-09-01 23:46:00,74.2,68.7,29.77,SSE,158,0.9,1.1,83,0.00,,,0.02,WUHU216HW,2013-09-02 03:46:00,
2013-09-01 23:47:00,74.2,68.7,29.76,SSE,158,1.6,1.6,83,0.00,,,0.02,WUHU216HW,2013-09-02 03:47:00,
2013-09-01 23:49:00,74.2,68.7,29.76,SSE,158,2.5,2.5,83,0.00,,,0.02,WUHU216HW,2013-09-02 03:49:00,
2013-09-01 23:50:00,74.2,68.7,29.77,SSE,158,1.3,2.5,83,0.00,,,0.02,WUHU216HW,2013-09-02 03:50:00,
2013-09-01 23:52:00,74.3,68.9,29.76,East,90,1.3,2.5,83,0.00,,,0.02,WUHU216HW,2013-09-02 03:52:00,
2013-09-01 23:53:00,74.3,68.9,29.76,ENE,68,1.1,2.5,83,0.00,,,0.02,WUHU216HW,2013-09-02 03:53:00,
2013-09-01 23:55:00,74.3,68.9,29.76,SE,135,0.4,2.5,83,0.00,,,0.02,WUHU216HW,2013-09-02 03:55:00,
2013-09-01 23:56:00,74.3,68.9,29.76,SSE,158,1.1,2.5,83,0.00,,,0.02,WUHU216HW,2013-09-02 03:56:00,
2013-09-01 23:58:00,74.5,69.0,29.76,SSE,158,5.4,5.4,83,0.00,,,0.02,WUHU216HW,2013-09-02 03:58:00,
2013-09-01 23:59:00,74.5,69.0,29.76,SSE,158,0.9,5.4,83,0.00,,,0.02,WUHU216HW,2013-09-02 03:59:00,